sensor_id;sensor_type;location;lat;lon;timestamp;temperature;humidity
9816;DHT22;4947;44.526;11.360;2022-09-02T00:01:14;19.00;99.90
9816;DHT22;4947;44.526;11.360;2022-09-02T00:03:42;19.00;99.90
9816;DHT22;4947;44.526;11.360;2022-09-02T00:06:10;19.10;99.90
9816;DHT22;4947;44.526;11.360;2022-09-02T00:08:40;19.10;99.90
9816;DHT22;4947;44.526;11.360;2022-09-02T00:11:12;19.20;99.90
9816;DHT22;4947;44.526;11.360;2022-09-02T00:13:40;19.20;99.90
9816;DHT22;4947;44.526;11.360;2022-09-02T00:16:08;19.10;99.90
9816;DHT22;4947;44.526;11.360;2022-09-02T00:18:36;19.20;99.90
9816;DHT22;4947;44.526;11.360;2022-09-02T00:21:04;19.30;99.90
9816;DHT22;4947;44.526;11.360;2022-09-02T00:23:31;19.30;99.90
9816;DHT22;4947;44.526;11.360;2022-09-02T00:26:01;19.30;99.90
9816;DHT22;4947;44.526;11.360;2022-09-02T00:28:28;19.40;99.90
9816;DHT22;4947;44.526;11.360;2022-09-02T00:30:56;19.30;99.90
9816;DHT22;4947;44.526;11.360;2022-09-02T00:33:24;19.30;99.90
9816;DHT22;4947;44.526;11.360;2022-09-02T00:35:53;19.30;99.90
9816;DHT22;4947;44.526;11.360;2022-09-02T00:38:20;19.30;99.90
9816;DHT22;4947;44.526;11.360;2022-09-02T00:40:49;19.20;99.90
9816;DHT22;4947;44.526;11.360;2022-09-02T00:43:38;19.20;99.90
9816;DHT22;4947;44.526;11.360;2022-09-02T00:46:06;19.30;99.90
9816;DHT22;4947;44.526;11.360;2022-09-02T00:48:34;19.20;99.90
9816;DHT22;4947;44.526;11.360;2022-09-02T00:51:06;19.20;99.90
9816;DHT22;4947;44.526;11.360;2022-09-02T00:53:34;19.20;99.90
9816;DHT22;4947;44.526;11.360;2022-09-02T00:56:05;19.20;99.90
9816;DHT22;4947;44.526;11.360;2022-09-02T00:58:37;19.20;99.90
9816;DHT22;4947;44.526;11.360;2022-09-02T01:01:04;19.20;99.90
9816;DHT22;4947;44.526;11.360;2022-09-02T01:03:33;19.20;99.90
9816;DHT22;4947;44.526;11.360;2022-09-02T01:06:01;19.10;99.90
9816;DHT22;4947;44.526;11.360;2022-09-02T01:08:31;19.00;99.90
9816;DHT22;4947;44.526;11.360;2022-09-02T01:11:02;19.00;99.90
9816;DHT22;4947;44.526;11.360;2022-09-02T01:13:37;18.90;99.90
9816;DHT22;4947;44.526;11.360;2022-09-02T01:16:10;18.90;99.90
9816;DHT22;4947;44.526;11.360;2022-09-02T01:18:39;18.90;99.90
9816;DHT22;4947;44.526;11.360;2022-09-02T01:21:07;18.90;99.90
9816;DHT22;4947;44.526;11.360;2022-09-02T01:23:36;18.90;99.90
9816;DHT22;4947;44.526;11.360;2022-09-02T01:26:03;18.90;99.90
9816;DHT22;4947;44.526;11.360;2022-09-02T01:28:32;18.90;99.90
9816;DHT22;4947;44.526;11.360;2022-09-02T01:31:00;18.90;99.90
9816;DHT22;4947;44.526;11.360;2022-09-02T01:33:28;18.90;99.90
9816;DHT22;4947;44.526;11.360;2022-09-02T01:35:56;18.90;99.90
9816;DHT22;4947;44.526;11.360;2022-09-02T01:38:25;18.90;99.90
9816;DHT22;4947;44.526;11.360;2022-09-02T01:40:55;18.90;99.90
9816;DHT22;4947;44.526;11.360;2022-09-02T01:43:25;18.80;99.90
9816;DHT22;4947;44.526;11.360;2022-09-02T01:45:55;18.90;99.90
9816;DHT22;4947;44.526;11.360;2022-09-02T01:48:22;18.90;99.90
9816;DHT22;4947;44.526;11.360;2022-09-02T01:50:53;18.90;99.90
9816;DHT22;4947;44.526;11.360;2022-09-02T01:53:20;18.90;99.90
9816;DHT22;4947;44.526;11.360;2022-09-02T01:55:48;18.80;99.90
9816;DHT22;4947;44.526;11.360;2022-09-02T01:58:17;18.80;99.90
9816;DHT22;4947;44.526;11.360;2022-09-02T02:00:46;18.80;99.90
9816;DHT22;4947;44.526;11.360;2022-09-02T02:03:13;18.80;99.90
9816;DHT22;4947;44.526;11.360;2022-09-02T02:05:42;18.80;99.90
9816;DHT22;4947;44.526;11.360;2022-09-02T02:08:09;18.80;99.90
9816;DHT22;4947;44.526;11.360;2022-09-02T02:10:39;18.70;99.90
9816;DHT22;4947;44.526;11.360;2022-09-02T02:13:07;18.70;99.90
9816;DHT22;4947;44.526;11.360;2022-09-02T02:15:38;18.70;99.90
9816;DHT22;4947;44.526;11.360;2022-09-02T02:18:06;18.70;99.90
9816;DHT22;4947;44.526;11.360;2022-09-02T02:20:33;18.70;99.90
9816;DHT22;4947;44.526;11.360;2022-09-02T02:23:01;18.60;99.90
9816;DHT22;4947;44.526;11.360;2022-09-02T02:25:31;18.60;99.90
9816;DHT22;4947;44.526;11.360;2022-09-02T02:27:58;18.60;99.90
9816;DHT22;4947;44.526;11.360;2022-09-02T02:30:26;18.60;99.90
9816;DHT22;4947;44.526;11.360;2022-09-02T02:32:55;18.60;99.90
9816;DHT22;4947;44.526;11.360;2022-09-02T02:35:22;18.60;99.90
9816;DHT22;4947;44.526;11.360;2022-09-02T02:37:50;18.60;99.90
9816;DHT22;4947;44.526;11.360;2022-09-02T02:40:20;18.50;99.90
9816;DHT22;4947;44.526;11.360;2022-09-02T02:42:49;18.50;99.90
9816;DHT22;4947;44.526;11.360;2022-09-02T02:45:17;18.50;99.90
9816;DHT22;4947;44.526;11.360;2022-09-02T02:47:45;18.50;99.90
9816;DHT22;4947;44.526;11.360;2022-09-02T02:50:16;18.50;99.90
9816;DHT22;4947;44.526;11.360;2022-09-02T02:52:44;18.50;99.90
9816;DHT22;4947;44.526;11.360;2022-09-02T02:55:15;18.40;99.90
9816;DHT22;4947;44.526;11.360;2022-09-02T02:57:42;18.40;99.90
9816;DHT22;4947;44.526;11.360;2022-09-02T03:00:12;18.50;99.90
9816;DHT22;4947;44.526;11.360;2022-09-02T03:02:40;18.50;99.90
9816;DHT22;4947;44.526;11.360;2022-09-02T03:05:10;18.50;99.90
9816;DHT22;4947;44.526;11.360;2022-09-02T03:07:39;18.50;99.90
9816;DHT22;4947;44.526;11.360;2022-09-02T03:10:09;18.50;99.90
9816;DHT22;4947;44.526;11.360;2022-09-02T03:12:37;18.40;99.90
9816;DHT22;4947;44.526;11.360;2022-09-02T03:15:05;18.40;99.90
9816;DHT22;4947;44.526;11.360;2022-09-02T03:17:33;18.40;99.90
9816;DHT22;4947;44.526;11.360;2022-09-02T03:20:01;18.40;99.90
9816;DHT22;4947;44.526;11.360;2022-09-02T03:22:28;18.40;99.90
9816;DHT22;4947;44.526;11.360;2022-09-02T03:24:57;18.50;99.90
9816;DHT22;4947;44.526;11.360;2022-09-02T03:27:24;18.50;99.90
9816;DHT22;4947;44.526;11.360;2022-09-02T03:29:53;18.50;99.90
9816;DHT22;4947;44.526;11.360;2022-09-02T03:32:20;18.40;99.90
9816;DHT22;4947;44.526;11.360;2022-09-02T03:34:47;18.30;99.90
9816;DHT22;4947;44.526;11.360;2022-09-02T03:37:16;18.20;99.90
9816;DHT22;4947;44.526;11.360;2022-09-02T03:39:44;18.20;99.90
9816;DHT22;4947;44.526;11.360;2022-09-02T03:42:13;18.20;99.90
9816;DHT22;4947;44.526;11.360;2022-09-02T03:44:40;18.20;99.90
9816;DHT22;4947;44.526;11.360;2022-09-02T03:47:08;18.10;99.90
9816;DHT22;4947;44.526;11.360;2022-09-02T03:49:36;18.10;99.90
9816;DHT22;4947;44.526;11.360;2022-09-02T03:52:03;18.10;99.90
9816;DHT22;4947;44.526;11.360;2022-09-02T03:54:31;18.10;99.90
9816;DHT22;4947;44.526;11.360;2022-09-02T03:56:58;18.00;99.90
9816;DHT22;4947;44.526;11.360;2022-09-02T03:59:27;17.90;99.90
9816;DHT22;4947;44.526;11.360;2022-09-02T04:01:54;17.90;99.90
9816;DHT22;4947;44.526;11.360;2022-09-02T04:04:22;17.90;99.90
9816;DHT22;4947;44.526;11.360;2022-09-02T04:06:49;17.90;99.90
9816;DHT22;4947;44.526;11.360;2022-09-02T04:09:17;18.00;99.90
9816;DHT22;4947;44.526;11.360;2022-09-02T04:11:45;18.00;99.90
9816;DHT22;4947;44.526;11.360;2022-09-02T04:14:13;17.90;99.90
9816;DHT22;4947;44.526;11.360;2022-09-02T04:16:42;17.90;99.90
9816;DHT22;4947;44.526;11.360;2022-09-02T04:19:10;18.00;99.90
9816;DHT22;4947;44.526;11.360;2022-09-02T04:21:39;17.90;99.90
9816;DHT22;4947;44.526;11.360;2022-09-02T04:24:09;18.00;99.90
9816;DHT22;4947;44.526;11.360;2022-09-02T04:26:37;18.00;99.90
9816;DHT22;4947;44.526;11.360;2022-09-02T04:29:05;18.00;99.90
9816;DHT22;4947;44.526;11.360;2022-09-02T04:31:33;18.10;99.90
9816;DHT22;4947;44.526;11.360;2022-09-02T04:34:03;18.10;99.90
9816;DHT22;4947;44.526;11.360;2022-09-02T04:36:31;18.10;99.90
9816;DHT22;4947;44.526;11.360;2022-09-02T04:38:59;18.10;99.90
9816;DHT22;4947;44.526;11.360;2022-09-02T04:41:28;18.10;99.90
9816;DHT22;4947;44.526;11.360;2022-09-02T04:43:58;18.10;99.90
9816;DHT22;4947;44.526;11.360;2022-09-02T04:46:26;18.10;99.90
9816;DHT22;4947;44.526;11.360;2022-09-02T04:48:53;18.10;99.90
9816;DHT22;4947;44.526;11.360;2022-09-02T04:51:24;18.10;99.90
9816;DHT22;4947;44.526;11.360;2022-09-02T04:53:54;18.20;99.90
9816;DHT22;4947;44.526;11.360;2022-09-02T04:56:23;18.40;99.90
9816;DHT22;4947;44.526;11.360;2022-09-02T04:58:52;18.40;99.90
9816;DHT22;4947;44.526;11.360;2022-09-02T05:01:21;18.40;99.90
9816;DHT22;4947;44.526;11.360;2022-09-02T05:03:50;18.40;99.90
9816;DHT22;4947;44.526;11.360;2022-09-02T05:06:20;18.50;99.90
9816;DHT22;4947;44.526;11.360;2022-09-02T05:08:49;18.60;99.90
9816;DHT22;4947;44.526;11.360;2022-09-02T05:11:22;18.70;99.90
9816;DHT22;4947;44.526;11.360;2022-09-02T05:13:54;18.80;99.90
9816;DHT22;4947;44.526;11.360;2022-09-02T05:16:24;18.90;99.90
9816;DHT22;4947;44.526;11.360;2022-09-02T05:18:52;18.90;99.90
9816;DHT22;4947;44.526;11.360;2022-09-02T05:21:20;18.90;99.90
9816;DHT22;4947;44.526;11.360;2022-09-02T05:23:50;18.90;99.90
9816;DHT22;4947;44.526;11.360;2022-09-02T05:26:18;19.10;99.90
9816;DHT22;4947;44.526;11.360;2022-09-02T05:28:45;19.10;99.90
9816;DHT22;4947;44.526;11.360;2022-09-02T05:31:14;19.20;99.90
9816;DHT22;4947;44.526;11.360;2022-09-02T05:33:45;19.30;99.90
9816;DHT22;4947;44.526;11.360;2022-09-02T05:36:16;19.40;99.90
9816;DHT22;4947;44.526;11.360;2022-09-02T05:38:45;19.50;99.90
9816;DHT22;4947;44.526;11.360;2022-09-02T05:41:16;19.60;99.90
9816;DHT22;4947;44.526;11.360;2022-09-02T05:43:44;19.70;99.90
9816;DHT22;4947;44.526;11.360;2022-09-02T05:46:15;19.80;99.90
9816;DHT22;4947;44.526;11.360;2022-09-02T05:48:44;20.00;99.90
9816;DHT22;4947;44.526;11.360;2022-09-02T05:51:29;20.10;99.90
9816;DHT22;4947;44.526;11.360;2022-09-02T05:53:59;20.10;99.90
9816;DHT22;4947;44.526;11.360;2022-09-02T05:56:28;20.20;99.90
9816;DHT22;4947;44.526;11.360;2022-09-02T05:58:56;20.40;99.90
9816;DHT22;4947;44.526;11.360;2022-09-02T06:01:25;20.40;99.90
9816;DHT22;4947;44.526;11.360;2022-09-02T06:03:52;20.50;99.90
9816;DHT22;4947;44.526;11.360;2022-09-02T06:06:20;20.60;99.90
9816;DHT22;4947;44.526;11.360;2022-09-02T06:08:49;20.70;99.90
9816;DHT22;4947;44.526;11.360;2022-09-02T06:11:17;20.70;99.90
9816;DHT22;4947;44.526;11.360;2022-09-02T06:13:46;20.80;99.90
9816;DHT22;4947;44.526;11.360;2022-09-02T06:16:16;20.90;99.90
9816;DHT22;4947;44.526;11.360;2022-09-02T06:18:49;21.00;99.90
9816;DHT22;4947;44.526;11.360;2022-09-02T06:21:17;21.10;99.90
9816;DHT22;4947;44.526;11.360;2022-09-02T06:23:46;21.10;99.90
9816;DHT22;4947;44.526;11.360;2022-09-02T06:26:16;21.20;99.90
9816;DHT22;4947;44.526;11.360;2022-09-02T06:28:46;21.20;99.90
9816;DHT22;4947;44.526;11.360;2022-09-02T06:31:15;21.30;99.90
9816;DHT22;4947;44.526;11.360;2022-09-02T06:33:44;21.30;99.90
9816;DHT22;4947;44.526;11.360;2022-09-02T06:36:15;21.30;99.90
9816;DHT22;4947;44.526;11.360;2022-09-02T06:38:45;21.30;99.90
9816;DHT22;4947;44.526;11.360;2022-09-02T06:41:18;21.30;99.90
9816;DHT22;4947;44.526;11.360;2022-09-02T06:43:49;21.30;99.90
9816;DHT22;4947;44.526;11.360;2022-09-02T06:46:18;21.30;99.90
9816;DHT22;4947;44.526;11.360;2022-09-02T06:48:46;21.50;99.90
9816;DHT22;4947;44.526;11.360;2022-09-02T06:51:16;21.30;99.90
9816;DHT22;4947;44.526;11.360;2022-09-02T06:53:44;21.30;99.90
9816;DHT22;4947;44.526;11.360;2022-09-02T06:56:11;21.50;99.90
9816;DHT22;4947;44.526;11.360;2022-09-02T06:58:39;21.70;99.90
9816;DHT22;4947;44.526;11.360;2022-09-02T07:01:08;21.80;99.90
9816;DHT22;4947;44.526;11.360;2022-09-02T07:03:37;21.90;99.90
9816;DHT22;4947;44.526;11.360;2022-09-02T07:06:22;21.90;99.90
9816;DHT22;4947;44.526;11.360;2022-09-02T07:08:49;22.20;99.90
9816;DHT22;4947;44.526;11.360;2022-09-02T07:11:19;22.50;99.90
9816;DHT22;4947;44.526;11.360;2022-09-02T07:13:50;22.90;99.90
9816;DHT22;4947;44.526;11.360;2022-09-02T07:16:19;23.60;99.90
9816;DHT22;4947;44.526;11.360;2022-09-02T07:18:47;24.10;99.90
9816;DHT22;4947;44.526;11.360;2022-09-02T07:21:15;24.50;99.40
9816;DHT22;4947;44.526;11.360;2022-09-02T07:23:42;25.40;96.30
9816;DHT22;4947;44.526;11.360;2022-09-02T07:26:11;26.30;93.50
9816;DHT22;4947;44.526;11.360;2022-09-02T07:28:39;26.70;90.60
9816;DHT22;4947;44.526;11.360;2022-09-02T07:31:07;27.50;87.60
9816;DHT22;4947;44.526;11.360;2022-09-02T07:33:36;28.00;83.60
9816;DHT22;4947;44.526;11.360;2022-09-02T07:36:05;28.30;82.80
9816;DHT22;4947;44.526;11.360;2022-09-02T07:38:35;29.00;78.70
9816;DHT22;4947;44.526;11.360;2022-09-02T07:41:03;28.60;76.40
9816;DHT22;4947;44.526;11.360;2022-09-02T07:43:32;29.60;73.00
9816;DHT22;4947;44.526;11.360;2022-09-02T07:46:00;29.60;72.80
9816;DHT22;4947;44.526;11.360;2022-09-02T07:48:29;29.80;73.30
9816;DHT22;4947;44.526;11.360;2022-09-02T07:50:58;30.10;72.60
9816;DHT22;4947;44.526;11.360;2022-09-02T07:53:27;30.30;70.10
9816;DHT22;4947;44.526;11.360;2022-09-02T07:55:56;30.50;69.10
9816;DHT22;4947;44.526;11.360;2022-09-02T07:58:29;30.50;69.80
9816;DHT22;4947;44.526;11.360;2022-09-02T08:00:56;30.60;69.50
9816;DHT22;4947;44.526;11.360;2022-09-02T08:03:28;30.20;68.20
9816;DHT22;4947;44.526;11.360;2022-09-02T08:05:56;30.50;66.70
9816;DHT22;4947;44.526;11.360;2022-09-02T08:08:25;30.60;64.60
9816;DHT22;4947;44.526;11.360;2022-09-02T08:10:53;30.70;67.10
9816;DHT22;4947;44.526;11.360;2022-09-02T08:13:22;30.00;67.60
9816;DHT22;4947;44.526;11.360;2022-09-02T08:15:49;30.00;66.90
9816;DHT22;4947;44.526;11.360;2022-09-02T08:18:19;30.40;66.40
9816;DHT22;4947;44.526;11.360;2022-09-02T08:20:46;30.90;66.30
9816;DHT22;4947;44.526;11.360;2022-09-02T08:23:13;31.70;63.70
9816;DHT22;4947;44.526;11.360;2022-09-02T08:25:43;31.60;60.30
9816;DHT22;4947;44.526;11.360;2022-09-02T08:28:10;32.40;59.20
9816;DHT22;4947;44.526;11.360;2022-09-02T08:30:37;32.10;58.70
9816;DHT22;4947;44.526;11.360;2022-09-02T08:33:05;32.20;57.50
9816;DHT22;4947;44.526;11.360;2022-09-02T08:35:33;31.30;59.00
9816;DHT22;4947;44.526;11.360;2022-09-02T08:38:01;30.40;61.00
9816;DHT22;4947;44.526;11.360;2022-09-02T08:40:33;29.80;62.80
9816;DHT22;4947;44.526;11.360;2022-09-02T08:43:11;29.90;61.70
9816;DHT22;4947;44.526;11.360;2022-09-02T08:45:40;30.60;58.70
9816;DHT22;4947;44.526;11.360;2022-09-02T08:48:16;31.00;58.30
9816;DHT22;4947;44.526;11.360;2022-09-02T08:50:47;31.00;57.50
9816;DHT22;4947;44.526;11.360;2022-09-02T08:53:21;30.40;58.00
9816;DHT22;4947;44.526;11.360;2022-09-02T08:55:51;30.30;58.90
9816;DHT22;4947;44.526;11.360;2022-09-02T08:58:23;31.20;58.00
9816;DHT22;4947;44.526;11.360;2022-09-02T09:00:57;30.10;59.10
9816;DHT22;4947;44.526;11.360;2022-09-02T09:03:36;29.70;60.80
9816;DHT22;4947;44.526;11.360;2022-09-02T09:06:13;30.40;57.70
9816;DHT22;4947;44.526;11.360;2022-09-02T09:08:46;30.30;56.70
9816;DHT22;4947;44.526;11.360;2022-09-02T09:11:29;31.20;56.30
9816;DHT22;4947;44.526;11.360;2022-09-02T09:14:08;30.80;56.60
9816;DHT22;4947;44.526;11.360;2022-09-02T09:16:40;29.70;59.50
9816;DHT22;4947;44.526;11.360;2022-09-02T09:19:13;30.50;59.60
9816;DHT22;4947;44.526;11.360;2022-09-02T09:21:42;31.60;59.60
9816;DHT22;4947;44.526;11.360;2022-09-02T09:24:21;31.40;56.10
9816;DHT22;4947;44.526;11.360;2022-09-02T09:26:52;30.10;57.70
9816;DHT22;4947;44.526;11.360;2022-09-02T09:29:21;29.70;58.20
9816;DHT22;4947;44.526;11.360;2022-09-02T09:31:53;29.20;59.50
9816;DHT22;4947;44.526;11.360;2022-09-02T09:34:22;29.30;63.70
9816;DHT22;4947;44.526;11.360;2022-09-02T09:36:51;30.40;59.60
9816;DHT22;4947;44.526;11.360;2022-09-02T09:39:23;31.50;56.30
9816;DHT22;4947;44.526;11.360;2022-09-02T09:41:51;31.90;54.40
9816;DHT22;4947;44.526;11.360;2022-09-02T09:44:51;32.00;55.70
9816;DHT22;4947;44.526;11.360;2022-09-02T09:47:21;31.90;53.90
9816;DHT22;4947;44.526;11.360;2022-09-02T09:49:51;31.60;55.60
9816;DHT22;4947;44.526;11.360;2022-09-02T09:52:23;31.10;54.50
9816;DHT22;4947;44.526;11.360;2022-09-02T09:55:15;31.00;54.60
9816;DHT22;4947;44.526;11.360;2022-09-02T09:57:46;31.00;55.60
9816;DHT22;4947;44.526;11.360;2022-09-02T10:00:21;31.40;53.20
9816;DHT22;4947;44.526;11.360;2022-09-02T10:02:56;31.40;54.10
9816;DHT22;4947;44.526;11.360;2022-09-02T10:05:31;30.70;54.10
9816;DHT22;4947;44.526;11.360;2022-09-02T10:08:01;29.00;59.90
9816;DHT22;4947;44.526;11.360;2022-09-02T10:10:31;28.80;61.50
9816;DHT22;4947;44.526;11.360;2022-09-02T10:13:15;28.70;61.80
9816;DHT22;4947;44.526;11.360;2022-09-02T10:16:03;28.60;62.50
9816;DHT22;4947;44.526;11.360;2022-09-02T10:18:40;28.60;61.10
9816;DHT22;4947;44.526;11.360;2022-09-02T10:21:15;28.10;59.80
9816;DHT22;4947;44.526;11.360;2022-09-02T10:23:53;28.00;60.60
9816;DHT22;4947;44.526;11.360;2022-09-02T10:26:35;28.00;62.10
9816;DHT22;4947;44.526;11.360;2022-09-02T10:32:32;27.40;62.80
9816;DHT22;4947;44.526;11.360;2022-09-02T10:35:08;27.40;63.70
9816;DHT22;4947;44.526;11.360;2022-09-02T10:37:44;27.20;68.10
9816;DHT22;4947;44.526;11.360;2022-09-02T10:40:16;27.20;64.90
9816;DHT22;4947;44.526;11.360;2022-09-02T10:42:58;27.30;55.40
9816;DHT22;4947;44.526;11.360;2022-09-02T10:45:32;27.20;55.10
9816;DHT22;4947;44.526;11.360;2022-09-02T10:48:14;27.20;57.90
9816;DHT22;4947;44.526;11.360;2022-09-02T10:50:47;27.30;61.30
9816;DHT22;4947;44.526;11.360;2022-09-02T10:53:38;27.20;59.90
9816;DHT22;4947;44.526;11.360;2022-09-02T10:56:11;27.20;57.50
9816;DHT22;4947;44.526;11.360;2022-09-02T10:58:46;27.10;57.20
9816;DHT22;4947;44.526;11.360;2022-09-02T11:01:18;27.00;58.00
9816;DHT22;4947;44.526;11.360;2022-09-02T11:03:57;26.90;56.90
9816;DHT22;4947;44.526;11.360;2022-09-02T11:06:26;26.80;57.20
9816;DHT22;4947;44.526;11.360;2022-09-02T11:08:57;27.00;58.70
9816;DHT22;4947;44.526;11.360;2022-09-02T11:11:29;26.90;56.90
9816;DHT22;4947;44.526;11.360;2022-09-02T11:14:05;26.90;56.40
9816;DHT22;4947;44.526;11.360;2022-09-02T11:16:39;26.90;56.80
9816;DHT22;4947;44.526;11.360;2022-09-02T11:19:12;27.00;58.10
9816;DHT22;4947;44.526;11.360;2022-09-02T11:21:51;27.10;57.50
9816;DHT22;4947;44.526;11.360;2022-09-02T11:24:24;27.00;56.80
9816;DHT22;4947;44.526;11.360;2022-09-02T11:26:58;26.90;54.50
9816;DHT22;4947;44.526;11.360;2022-09-02T11:29:34;26.90;53.50
9816;DHT22;4947;44.526;11.360;2022-09-02T11:32:09;26.90;55.30
9816;DHT22;4947;44.526;11.360;2022-09-02T11:34:43;26.80;53.60
9816;DHT22;4947;44.526;11.360;2022-09-02T11:37:24;26.90;55.00
9816;DHT22;4947;44.526;11.360;2022-09-02T11:39:59;27.10;58.30
9816;DHT22;4947;44.526;11.360;2022-09-02T11:42:46;27.10;60.70
9816;DHT22;4947;44.526;11.360;2022-09-02T11:45:26;27.10;58.90
9816;DHT22;4947;44.526;11.360;2022-09-02T11:48:16;27.10;59.00
9816;DHT22;4947;44.526;11.360;2022-09-02T11:51:09;27.20;59.30
9816;DHT22;4947;44.526;11.360;2022-09-02T11:53:45;27.30;59.60
9816;DHT22;4947;44.526;11.360;2022-09-02T11:56:16;27.20;58.70
9816;DHT22;4947;44.526;11.360;2022-09-02T11:58:47;27.00;59.30
9816;DHT22;4947;44.526;11.360;2022-09-02T12:01:27;27.00;59.50
9816;DHT22;4947;44.526;11.360;2022-09-02T12:03:59;27.10;60.20
9816;DHT22;4947;44.526;11.360;2022-09-02T12:06:30;27.20;62.40
9816;DHT22;4947;44.526;11.360;2022-09-02T12:09:00;26.90;59.30
9816;DHT22;4947;44.526;11.360;2022-09-02T12:11:59;26.90;58.80
9816;DHT22;4947;44.526;11.360;2022-09-02T12:21:07;26.90;56.70
9816;DHT22;4947;44.526;11.360;2022-09-02T12:27:17;26.80;58.40
9816;DHT22;4947;44.526;11.360;2022-09-02T12:29:45;26.80;58.90
9816;DHT22;4947;44.526;11.360;2022-09-02T12:35:53;26.90;59.50
9816;DHT22;4947;44.526;11.360;2022-09-02T12:38:27;26.70;59.10
9816;DHT22;4947;44.526;11.360;2022-09-02T12:40:59;26.80;61.60
9816;DHT22;4947;44.526;11.360;2022-09-02T12:43:43;26.70;60.90
9816;DHT22;4947;44.526;11.360;2022-09-02T12:46:19;26.80;60.90
9816;DHT22;4947;44.526;11.360;2022-09-02T12:48:58;26.90;61.40
9816;DHT22;4947;44.526;11.360;2022-09-02T12:51:52;26.70;61.60
9816;DHT22;4947;44.526;11.360;2022-09-02T12:54:33;26.60;62.90
9816;DHT22;4947;44.526;11.360;2022-09-02T12:57:02;26.70;64.20
9816;DHT22;4947;44.526;11.360;2022-09-02T12:59:33;26.90;63.20
9816;DHT22;4947;44.526;11.360;2022-09-02T13:02:25;26.80;64.10
9816;DHT22;4947;44.526;11.360;2022-09-02T13:05:10;26.80;64.80
9816;DHT22;4947;44.526;11.360;2022-09-02T13:08:03;26.70;64.30
9816;DHT22;4947;44.526;11.360;2022-09-02T13:10:54;26.70;65.10
9816;DHT22;4947;44.526;11.360;2022-09-02T13:16:37;26.70;62.40
9816;DHT22;4947;44.526;11.360;2022-09-02T13:22:28;26.80;62.50
9816;DHT22;4947;44.526;11.360;2022-09-02T13:25:23;26.70;62.90
9816;DHT22;4947;44.526;11.360;2022-09-02T13:31:06;26.90;60.00
9816;DHT22;4947;44.526;11.360;2022-09-02T13:33:37;26.70;60.80
9816;DHT22;4947;44.526;11.360;2022-09-02T13:36:04;26.80;62.70
9816;DHT22;4947;44.526;11.360;2022-09-02T13:38:32;26.90;60.40
9816;DHT22;4947;44.526;11.360;2022-09-02T13:41:01;27.00;62.30
9816;DHT22;4947;44.526;11.360;2022-09-02T13:43:29;27.10;60.30
9816;DHT22;4947;44.526;11.360;2022-09-02T13:46:00;27.10;60.10
9816;DHT22;4947;44.526;11.360;2022-09-02T13:48:29;27.00;60.60
9816;DHT22;4947;44.526;11.360;2022-09-02T13:51:10;26.90;60.60
9816;DHT22;4947;44.526;11.360;2022-09-02T13:53:40;26.90;60.90
9816;DHT22;4947;44.526;11.360;2022-09-02T13:56:09;26.80;61.40
9816;DHT22;4947;44.526;11.360;2022-09-02T13:58:42;27.00;62.80
9816;DHT22;4947;44.526;11.360;2022-09-02T14:01:20;27.00;61.60
9816;DHT22;4947;44.526;11.360;2022-09-02T14:03:48;26.90;62.80
9816;DHT22;4947;44.526;11.360;2022-09-02T14:06:21;26.90;61.40
9816;DHT22;4947;44.526;11.360;2022-09-02T14:08:51;26.80;59.90
9816;DHT22;4947;44.526;11.360;2022-09-02T14:11:25;26.90;61.20
9816;DHT22;4947;44.526;11.360;2022-09-02T14:13:57;26.90;60.00
9816;DHT22;4947;44.526;11.360;2022-09-02T14:16:27;26.90;61.10
9816;DHT22;4947;44.526;11.360;2022-09-02T14:19:09;26.80;61.70
9816;DHT22;4947;44.526;11.360;2022-09-02T14:21:46;26.80;61.90
9816;DHT22;4947;44.526;11.360;2022-09-02T14:24:18;26.80;61.60
9816;DHT22;4947;44.526;11.360;2022-09-02T14:26:48;26.70;61.20
9816;DHT22;4947;44.526;11.360;2022-09-02T14:29:17;26.70;61.40
9816;DHT22;4947;44.526;11.360;2022-09-02T14:31:46;26.80;59.90
9816;DHT22;4947;44.526;11.360;2022-09-02T14:34:33;26.70;61.00
9816;DHT22;4947;44.526;11.360;2022-09-02T14:37:18;26.80;62.30
9816;DHT22;4947;44.526;11.360;2022-09-02T14:40:03;26.70;60.80
9816;DHT22;4947;44.526;11.360;2022-09-02T14:42:33;26.70;60.10
9816;DHT22;4947;44.526;11.360;2022-09-02T14:45:00;26.70;60.80
9816;DHT22;4947;44.526;11.360;2022-09-02T14:47:30;26.80;60.90
9816;DHT22;4947;44.526;11.360;2022-09-02T14:50:03;26.80;59.00
9816;DHT22;4947;44.526;11.360;2022-09-02T14:52:33;26.70;60.10
9816;DHT22;4947;44.526;11.360;2022-09-02T14:55:02;26.80;59.40
9816;DHT22;4947;44.526;11.360;2022-09-02T14:57:32;26.90;61.20
9816;DHT22;4947;44.526;11.360;2022-09-02T15:00:04;26.90;59.90
9816;DHT22;4947;44.526;11.360;2022-09-02T15:02:34;26.90;59.20
9816;DHT22;4947;44.526;11.360;2022-09-02T15:05:05;26.80;59.50
9816;DHT22;4947;44.526;11.360;2022-09-02T15:07:35;26.80;59.10
9816;DHT22;4947;44.526;11.360;2022-09-02T15:10:03;26.80;59.40
9816;DHT22;4947;44.526;11.360;2022-09-02T15:12:36;26.80;59.20
9816;DHT22;4947;44.526;11.360;2022-09-02T15:15:05;26.80;59.50
9816;DHT22;4947;44.526;11.360;2022-09-02T15:17:32;26.80;59.40
9816;DHT22;4947;44.526;11.360;2022-09-02T15:20:00;26.80;59.50
9816;DHT22;4947;44.526;11.360;2022-09-02T15:22:27;26.80;59.90
9816;DHT22;4947;44.526;11.360;2022-09-02T15:24:56;26.70;59.90
9816;DHT22;4947;44.526;11.360;2022-09-02T15:27:24;26.80;59.90
9816;DHT22;4947;44.526;11.360;2022-09-02T15:29:51;26.80;59.20
9816;DHT22;4947;44.526;11.360;2022-09-02T15:32:19;26.80;59.30
9816;DHT22;4947;44.526;11.360;2022-09-02T15:34:46;26.80;59.60
9816;DHT22;4947;44.526;11.360;2022-09-02T15:37:13;26.70;59.50
9816;DHT22;4947;44.526;11.360;2022-09-02T15:39:41;26.70;59.50
9816;DHT22;4947;44.526;11.360;2022-09-02T15:42:10;26.70;59.30
9816;DHT22;4947;44.526;11.360;2022-09-02T15:44:37;26.70;59.80
9816;DHT22;4947;44.526;11.360;2022-09-02T15:47:05;26.80;60.40
9816;DHT22;4947;44.526;11.360;2022-09-02T15:49:33;26.70;59.90
9816;DHT22;4947;44.526;11.360;2022-09-02T15:52:00;26.80;60.30
9816;DHT22;4947;44.526;11.360;2022-09-02T15:54:29;26.80;60.10
9816;DHT22;4947;44.526;11.360;2022-09-02T15:56:57;26.80;61.50
9816;DHT22;4947;44.526;11.360;2022-09-02T15:59:26;26.70;61.50
9816;DHT22;4947;44.526;11.360;2022-09-02T16:01:55;26.70;61.70
9816;DHT22;4947;44.526;11.360;2022-09-02T16:04:23;26.60;61.90
9816;DHT22;4947;44.526;11.360;2022-09-02T16:06:53;26.50;62.80
9816;DHT22;4947;44.526;11.360;2022-09-02T16:09:21;26.50;63.10
9816;DHT22;4947;44.526;11.360;2022-09-02T16:11:50;26.30;63.70
9816;DHT22;4947;44.526;11.360;2022-09-02T16:14:19;26.30;63.70
9816;DHT22;4947;44.526;11.360;2022-09-02T16:16:49;26.20;64.40
9816;DHT22;4947;44.526;11.360;2022-09-02T16:19:18;26.20;64.00
9816;DHT22;4947;44.526;11.360;2022-09-02T16:21:46;26.10;64.40
9816;DHT22;4947;44.526;11.360;2022-09-02T16:24:14;26.00;64.90
9816;DHT22;4947;44.526;11.360;2022-09-02T16:26:42;26.00;64.40
9816;DHT22;4947;44.526;11.360;2022-09-02T16:29:11;26.00;64.80
9816;DHT22;4947;44.526;11.360;2022-09-02T16:31:42;26.00;65.20
9816;DHT22;4947;44.526;11.360;2022-09-02T16:34:13;26.10;65.20
9816;DHT22;4947;44.526;11.360;2022-09-02T16:36:42;26.10;66.30